createdAt,value
2022-10-05T00:01:40.542Z,10.50
2022-10-05T00:04:38.914Z,10.50
2022-10-05T00:07:37.642Z,10.50
2022-10-05T00:10:36.003Z,10.50
2022-10-05T00:13:35.903Z,10.50
2022-10-05T00:16:35.841Z,10.60
2022-10-05T00:19:38.913Z,10.70
2022-10-05T00:22:37.198Z,10.60
2022-10-05T00:25:36.054Z,10.60
2022-10-05T00:28:34.647Z,10.70
2022-10-05T00:31:36.380Z,10.70
2022-10-05T00:34:35.182Z,10.70
2022-10-05T00:37:33.950Z,10.70
2022-10-05T00:40:59.287Z,10.70
2022-10-05T00:44:16.256Z,10.60
2022-10-05T00:47:32.009Z,10.60
2022-10-05T00:51:01.089Z,10.60
2022-10-05T00:54:25.739Z,10.60
2022-10-05T00:57:47.519Z,10.60
2022-10-05T01:01:06.793Z,10.60
2022-10-05T01:04:19.321Z,10.50
2022-10-05T01:07:40.044Z,10.60
2022-10-05T01:10:47.823Z,10.50
2022-10-05T01:14:07.140Z,10.60
2022-10-05T01:17:26.674Z,10.60
2022-10-05T01:20:47.540Z,10.60
2022-10-05T01:24:13.847Z,10.60
2022-10-05T01:27:23.101Z,10.60
2022-10-05T01:30:23.153Z,10.60
2022-10-05T01:33:45.526Z,10.60
2022-10-05T01:36:58.460Z,10.60
2022-10-05T01:40:23.961Z,10.60
2022-10-05T01:43:42.828Z,10.70
2022-10-05T01:46:49.607Z,10.60
2022-10-05T01:50:02.500Z,10.70
2022-10-05T01:53:25.431Z,10.70
2022-10-05T01:56:44.163Z,10.70
2022-10-05T02:00:02.350Z,10.80
2022-10-05T02:03:08.332Z,10.80
2022-10-05T02:06:13.927Z,10.90
2022-10-05T02:09:19.080Z,11.00
2022-10-05T02:12:21.248Z,11.10
2022-10-05T02:15:24.825Z,11.30
2022-10-05T02:18:29.512Z,11.40
2022-10-05T02:21:31.639Z,11.60
2022-10-05T02:24:39.088Z,11.70
2022-10-05T02:27:40.781Z,11.90
2022-10-05T02:30:46.015Z,12.00
2022-10-05T02:33:44.799Z,12.00
2022-10-05T02:36:43.437Z,12.00
2022-10-05T02:39:59.799Z,12.00
2022-10-05T02:43:24.500Z,12.10
2022-10-05T02:46:43.951Z,12.10
2022-10-05T02:49:58.025Z,12.20
2022-10-05T02:53:15.309Z,12.40
2022-10-05T02:56:24.692Z,12.60
2022-10-05T02:59:38.839Z,12.70
2022-10-05T03:02:45.154Z,12.80
2022-10-05T03:06:01.086Z,12.90
2022-10-05T03:09:05.483Z,13.10
2022-10-05T03:12:19.272Z,13.20
2022-10-05T03:15:44.773Z,13.30
2022-10-05T03:18:58.830Z,13.50
2022-10-05T03:22:11.674Z,13.50
2022-10-05T03:25:33.088Z,13.60
2022-10-05T03:28:41.966Z,13.70
2022-10-05T03:31:49.698Z,13.70
2022-10-05T03:34:57.693Z,13.70
2022-10-05T03:38:27.200Z,13.60
2022-10-05T03:41:43.448Z,13.40
2022-10-05T03:44:56.569Z,13.30
2022-10-05T03:48:15.239Z,13.10
2022-10-05T03:51:21.262Z,13.20
2022-10-05T03:54:50.648Z,13.20
2022-10-05T03:57:52.992Z,13.10
2022-10-05T04:00:57.653Z,13.10
2022-10-05T04:04:00.455Z,13.10
2022-10-05T04:07:01.222Z,13.10
2022-10-05T04:10:04.001Z,13.10
2022-10-05T04:13:32.967Z,13.10
2022-10-05T04:16:37.439Z,13.10
2022-10-05T04:19:44.774Z,13.10
2022-10-05T04:23:00.447Z,13.10
2022-10-05T04:26:04.974Z,13.10
2022-10-05T04:29:27.732Z,13.20
2022-10-05T04:32:43.495Z,13.30
2022-10-05T04:36:12.973Z,13.30
2022-10-05T04:39:38.039Z,13.40
2022-10-05T04:42:45.899Z,13.50
2022-10-05T04:46:19.364Z,13.50
2022-10-05T04:49:32.424Z,13.80
2022-10-05T04:52:48.020Z,13.90
2022-10-05T04:56:05.537Z,14.00
2022-10-05T04:59:29.134Z,14.20
2022-10-05T05:03:00.810Z,14.50
2022-10-05T05:06:18.519Z,14.80
2022-10-05T05:09:48.800Z,14.90
2022-10-05T05:13:12.360Z,15.00
2022-10-05T05:16:27.025Z,15.00
2022-10-05T05:19:46.217Z,15.00
2022-10-05T05:22:54.645Z,14.90
2022-10-05T05:26:23.522Z,14.90
2022-10-05T05:29:59.156Z,14.90
2022-10-05T05:33:08.989Z,15.00
2022-10-05T05:36:35.378Z,15.10
2022-10-05T05:39:55.988Z,15.20
2022-10-05T05:43:23.459Z,15.20
2022-10-05T05:46:51.063Z,15.20
2022-10-05T05:50:09.692Z,15.30
2022-10-05T05:53:31.474Z,15.40
2022-10-05T05:56:39.915Z,15.40
2022-10-05T05:59:54.283Z,15.40
2022-10-05T06:03:03.264Z,15.50
2022-10-05T06:06:05.990Z,15.50
2022-10-05T06:09:20.448Z,15.50
2022-10-05T06:12:24.807Z,15.60
2022-10-05T06:15:37.558Z,15.60
2022-10-05T06:18:40.547Z,15.60
2022-10-05T06:21:52.041Z,15.70
2022-10-05T06:25:10.068Z,15.80
2022-10-05T06:28:17.018Z,15.80
2022-10-05T06:31:41.113Z,15.70
2022-10-05T06:34:57.400Z,15.70
2022-10-05T06:38:16.295Z,15.60
2022-10-05T06:41:46.183Z,15.70
2022-10-05T06:44:57.151Z,15.80
2022-10-05T06:48:05.803Z,16.00
2022-10-05T06:51:18.653Z,16.30
2022-10-05T06:54:39.399Z,16.40
2022-10-05T06:57:54.824Z,16.60
2022-10-05T07:01:00.059Z,16.70
2022-10-05T07:04:22.485Z,16.70
2022-10-05T07:07:32.607Z,16.90
2022-10-05T07:11:01.741Z,17.10
2022-10-05T07:14:21.351Z,17.20
2022-10-05T07:17:54.867Z,17.40
2022-10-05T07:21:14.132Z,17.50
2022-10-05T07:24:33.571Z,17.60
2022-10-05T07:27:38.567Z,17.70
2022-10-05T07:30:53.320Z,17.70
2022-10-05T07:34:10.436Z,17.70
2022-10-05T07:37:30.768Z,17.80
2022-10-05T07:40:44.766Z,17.60
2022-10-05T07:44:03.040Z,17.20
2022-10-05T07:47:27.957Z,17.10
2022-10-05T07:50:46.272Z,17.20
2022-10-05T07:54:06.974Z,17.20
2022-10-05T07:57:37.601Z,17.10
2022-10-05T08:01:02.540Z,17.10
2022-10-05T08:04:20.309Z,17.20
2022-10-05T08:07:19.339Z,17.10
2022-10-05T08:10:39.444Z,17.10
2022-10-05T08:13:49.123Z,17.10
2022-10-05T08:16:49.979Z,17.10
2022-10-05T08:19:55.608Z,17.00
2022-10-05T08:23:19.024Z,16.90
2022-10-05T08:26:27.802Z,16.80
2022-10-05T08:29:38.266Z,16.90
2022-10-05T08:32:57.649Z,16.90
2022-10-05T08:36:11.303Z,16.80
2022-10-05T08:39:21.533Z,16.70
2022-10-05T08:42:52.174Z,16.70
2022-10-05T08:46:21.095Z,16.60
2022-10-05T08:49:50.240Z,16.60
2022-10-05T08:53:15.536Z,16.50
2022-10-05T08:56:36.479Z,16.30
2022-10-05T09:00:00.768Z,16.30
2022-10-05T09:03:21.610Z,16.20
2022-10-05T09:06:51.713Z,16.30
2022-10-05T09:10:17.806Z,16.40
2022-10-05T09:13:47.308Z,16.30
2022-10-05T09:17:05.834Z,16.20
2022-10-05T09:20:21.603Z,16.20
2022-10-05T09:23:39.621Z,16.10
2022-10-05T09:26:53.271Z,16.20
2022-10-05T09:30:20.907Z,16.20
2022-10-05T09:33:52.613Z,16.20
2022-10-05T09:37:16.096Z,16.20
2022-10-05T09:40:48.269Z,16.20
2022-10-05T09:44:17.384Z,16.10
2022-10-05T09:47:41.974Z,16.00
2022-10-05T09:51:06.477Z,16.10
2022-10-05T09:54:40.929Z,16.10
2022-10-05T09:58:06.089Z,16.10
2022-10-05T10:01:34.262Z,16.10
2022-10-05T10:05:06.071Z,16.10
2022-10-05T10:08:40.717Z,16.10
2022-10-05T10:12:04.142Z,16.20
2022-10-05T10:15:38.943Z,16.20
2022-10-05T10:19:07.892Z,16.20
2022-10-05T10:22:43.034Z,16.30
2022-10-05T10:26:04.099Z,16.30
2022-10-05T10:29:33.342Z,16.20
2022-10-05T10:33:00.240Z,16.10
2022-10-05T10:36:22.650Z,15.80
2022-10-05T10:39:51.788Z,15.70
2022-10-05T10:43:22.832Z,15.60
2022-10-05T10:46:55.269Z,15.70
2022-10-05T10:50:26.379Z,15.70
2022-10-05T10:53:56.548Z,15.80
2022-10-05T10:57:06.536Z,15.90
2022-10-05T11:00:21.555Z,16.00
2022-10-05T11:03:52.101Z,16.10
2022-10-05T11:07:17.199Z,16.10
2022-10-05T11:10:27.364Z,16.20
2022-10-05T11:13:56.767Z,16.20
2022-10-05T11:17:32.234Z,16.30
2022-10-05T11:21:00.753Z,16.20
2022-10-05T11:24:39.365Z,16.20
2022-10-05T11:28:02.750Z,16.20
2022-10-05T11:31:27.953Z,16.00
2022-10-05T11:34:54.958Z,15.90
2022-10-05T11:38:16.541Z,15.80
2022-10-05T11:41:41.945Z,15.70
2022-10-05T11:45:14.732Z,15.60
2022-10-05T11:48:36.576Z,15.50
2022-10-05T11:51:45.018Z,15.40
2022-10-05T11:55:10.901Z,15.40
2022-10-05T11:58:27.285Z,15.30
2022-10-05T12:01:45.631Z,15.30
2022-10-05T12:05:21.687Z,15.20
2022-10-05T12:08:41.473Z,15.20
2022-10-05T12:12:04.710Z,15.10
2022-10-05T12:15:25.247Z,15.10
2022-10-05T12:18:50.749Z,15.00
2022-10-05T12:22:10.350Z,15.00
2022-10-05T12:25:27.844Z,14.90
2022-10-05T12:28:46.648Z,14.90
2022-10-05T12:32:01.665Z,14.80
2022-10-05T12:35:36.542Z,14.80
2022-10-05T12:38:55.351Z,14.80
2022-10-05T12:42:17.375Z,14.70
2022-10-05T12:45:31.009Z,14.40
2022-10-05T12:48:52.917Z,14.40
2022-10-05T12:52:01.675Z,14.40
2022-10-05T12:55:13.607Z,14.30
2022-10-05T12:58:33.225Z,14.30
2022-10-05T13:01:53.237Z,14.20
2022-10-05T13:05:18.010Z,14.10
2022-10-05T13:08:29.064Z,14.00
2022-10-05T13:11:41.916Z,14.10
2022-10-05T13:15:04.812Z,14.10
2022-10-05T13:18:34.869Z,14.10
2022-10-05T13:22:05.158Z,14.10
2022-10-05T13:25:30.035Z,14.10
2022-10-05T13:28:40.689Z,14.10
2022-10-05T13:31:50.560Z,14.00
2022-10-05T13:35:17.939Z,14.10
2022-10-05T13:38:36.961Z,14.00
2022-10-05T13:42:09.989Z,13.90
2022-10-05T13:45:22.163Z,13.80
2022-10-05T13:48:57.097Z,13.70
2022-10-05T13:52:18.774Z,13.60
2022-10-05T13:55:43.387Z,13.50
2022-10-05T13:59:03.653Z,13.40
2022-10-05T14:02:20.765Z,13.40
2022-10-05T14:05:25.678Z,13.30
2022-10-05T14:08:29.408Z,13.20
2022-10-05T14:11:33.409Z,13.10
2022-10-05T14:14:42.869Z,12.90
2022-10-05T14:17:44.523Z,12.80
2022-10-05T14:20:58.988Z,12.70
2022-10-05T14:24:32.188Z,12.50
2022-10-05T14:28:00.703Z,12.40
2022-10-05T14:31:20.336Z,12.40
2022-10-05T14:34:32.536Z,12.40
2022-10-05T14:37:45.656Z,12.30
2022-10-05T14:40:44.344Z,12.30
2022-10-05T14:44:06.288Z,12.30
2022-10-05T14:47:23.232Z,12.30
2022-10-05T14:50:27.073Z,12.20
2022-10-05T14:53:38.479Z,12.20
2022-10-05T14:56:50.684Z,12.10
2022-10-05T15:00:02.859Z,12.00
2022-10-05T15:03:24.547Z,12.00
2022-10-05T15:06:31.388Z,12.00
2022-10-05T15:10:00.990Z,11.90
2022-10-05T15:13:11.614Z,11.80
2022-10-05T15:16:31.990Z,11.70
2022-10-05T15:20:00.923Z,11.60
2022-10-05T15:23:24.105Z,11.50
2022-10-05T15:26:56.668Z,11.40
2022-10-05T15:30:11.184Z,11.30
2022-10-05T15:33:28.569Z,11.20
2022-10-05T15:36:59.747Z,11.10
2022-10-05T15:40:03.079Z,10.90
2022-10-05T15:43:11.189Z,10.80
2022-10-05T15:46:18.070Z,10.70
2022-10-05T15:49:47.699Z,10.60
2022-10-05T15:53:11.238Z,10.50
2022-10-05T15:56:27.843Z,10.40
2022-10-05T15:59:44.621Z,10.30
2022-10-05T16:03:15.982Z,10.30
2022-10-05T16:06:58.444Z,10.20
2022-10-05T16:10:16.546Z,10.10
2022-10-05T16:13:37.174Z,10.10
2022-10-05T16:17:00.199Z,10.00
2022-10-05T16:20:25.165Z,9.90
2022-10-05T16:23:39.927Z,9.90
2022-10-05T16:26:53.970Z,9.80
2022-10-05T16:30:09.749Z,9.70
2022-10-05T16:33:29.747Z,9.60
2022-10-05T16:37:04.912Z,9.60
2022-10-05T16:40:23.420Z,9.50
2022-10-05T16:43:55.721Z,9.40
2022-10-05T16:47:00.411Z,9.40
2022-10-05T16:50:16.256Z,9.30
2022-10-05T16:53:23.395Z,9.30
2022-10-05T16:56:29.005Z,9.20
2022-10-05T16:59:58.254Z,9.20
2022-10-05T17:03:25.209Z,9.20
2022-10-05T17:06:38.858Z,9.10
2022-10-05T17:10:12.748Z,9.10
2022-10-05T17:13:40.377Z,9.00
2022-10-05T17:16:55.611Z,9.00
2022-10-05T17:20:17.901Z,9.00
2022-10-05T17:23:42.686Z,9.10
2022-10-05T17:26:58.287Z,9.00
2022-10-05T17:30:36.724Z,8.90
2022-10-05T17:33:55.770Z,8.90
2022-10-05T17:36:58.823Z,8.90
2022-10-05T17:39:59.408Z,8.90
2022-10-05T17:43:01.799Z,8.80
2022-10-05T17:46:04.229Z,8.80
2022-10-05T17:49:23.963Z,8.80
2022-10-05T17:52:41.344Z,8.70
2022-10-05T17:55:44.239Z,8.70
2022-10-05T17:59:03.522Z,8.60
2022-10-05T18:02:23.157Z,8.60
2022-10-05T18:05:28.350Z,8.50
2022-10-05T18:08:32.529Z,8.50
2022-10-05T18:11:41.184Z,8.50
2022-10-05T18:15:10.587Z,8.40
2022-10-05T18:18:40.125Z,8.40
2022-10-05T18:21:39.959Z,8.40
2022-10-05T18:25:04.103Z,8.50
2022-10-05T18:28:36.819Z,8.50
2022-10-05T18:31:52.635Z,8.60
2022-10-05T18:35:03.243Z,8.60
2022-10-05T18:38:26.759Z,8.70
2022-10-05T18:41:41.289Z,8.80
2022-10-05T18:44:46.862Z,8.80
2022-10-05T18:48:01.328Z,8.80
2022-10-05T18:51:16.969Z,8.80
2022-10-05T18:54:37.622Z,8.80
2022-10-05T18:58:04.027Z,8.80
2022-10-05T19:01:27.509Z,8.80
2022-10-05T19:04:47.102Z,8.70
2022-10-05T19:08:09.428Z,8.80
2022-10-05T19:11:30.943Z,8.80
2022-10-05T19:14:46.620Z,8.80
2022-10-05T19:18:10.395Z,8.80
2022-10-05T19:21:25.727Z,8.80
2022-10-05T19:24:48.171Z,8.70
2022-10-05T19:28:04.924Z,8.70
2022-10-05T19:31:37.600Z,8.70
2022-10-05T19:35:03.572Z,8.60
2022-10-05T19:38:27.774Z,8.60
2022-10-05T19:41:57.387Z,8.50
2022-10-05T19:45:08.191Z,8.50
2022-10-05T19:48:23.324Z,8.40
2022-10-05T19:51:31.332Z,8.40
2022-10-05T19:54:30.475Z,8.40
2022-10-05T19:57:29.291Z,8.40
2022-10-05T20:00:32.757Z,8.40
2022-10-05T20:03:37.443Z,8.40
2022-10-05T20:06:36.762Z,8.30
2022-10-05T20:09:52.113Z,8.30
2022-10-05T20:12:56.917Z,8.30
2022-10-05T20:19:56.443Z,8.30
2022-10-05T20:23:29.971Z,8.30
2022-10-05T20:27:09.599Z,8.30
2022-10-05T20:30:13.030Z,8.30
2022-10-05T20:33:18.718Z,8.30
2022-10-05T20:36:17.136Z,8.30
2022-10-05T20:39:17.528Z,8.30
2022-10-05T20:42:15.900Z,8.20
2022-10-05T20:45:15.220Z,8.20
2022-10-05T20:48:16.936Z,8.20
2022-10-05T20:51:19.894Z,8.10
2022-10-05T20:54:19.498Z,8.10
2022-10-05T20:57:18.520Z,8.20
2022-10-05T21:00:16.828Z,8.20
2022-10-05T21:03:15.685Z,8.20
2022-10-05T21:06:14.163Z,8.10
2022-10-05T21:09:15.499Z,8.10
2022-10-05T21:12:14.612Z,8.10
2022-10-05T21:15:13.605Z,8.10
2022-10-05T21:18:11.848Z,8.10
2022-10-05T21:21:11.419Z,8.10
2022-10-05T21:24:10.498Z,8.10
2022-10-05T21:27:10.528Z,8.00
2022-10-05T21:30:09.461Z,8.00
2022-10-05T21:33:08.303Z,7.90
2022-10-05T21:36:06.721Z,8.00
2022-10-05T21:39:05.791Z,8.00
2022-10-05T21:42:04.316Z,8.00
2022-10-05T21:45:03.170Z,8.00
2022-10-05T21:48:01.573Z,8.00
2022-10-05T21:51:01.730Z,8.00
2022-10-05T21:54:03.712Z,8.00
2022-10-05T21:57:03.003Z,8.00
2022-10-05T22:00:01.949Z,8.00
2022-10-05T22:03:00.750Z,7.90
2022-10-05T22:05:59.153Z,7.90
2022-10-05T22:08:58.088Z,7.90
2022-10-05T22:11:57.757Z,7.90
2022-10-05T22:14:56.477Z,7.80
2022-10-05T22:17:55.352Z,7.80
2022-10-05T22:20:54.331Z,7.80
2022-10-05T22:23:52.708Z,7.80
2022-10-05T22:26:52.121Z,7.80
2022-10-05T22:29:51.753Z,7.80
2022-10-05T22:32:50.552Z,7.80
2022-10-05T22:35:49.084Z,7.80
2022-10-05T22:38:48.290Z,7.80
2022-10-05T22:41:46.795Z,7.80
2022-10-05T22:44:45.898Z,7.80
2022-10-05T22:47:44.086Z,7.80
2022-10-05T22:50:45.720Z,7.80
2022-10-05T22:53:43.897Z,7.80
2022-10-05T22:56:42.592Z,7.80
2022-10-05T22:59:40.864Z,7.70
2022-10-05T23:02:41.486Z,7.70
2022-10-05T23:05:39.683Z,7.70
2022-10-05T23:08:39.844Z,7.70
2022-10-05T23:11:38.021Z,7.70
2022-10-05T23:14:37.090Z,7.70
2022-10-05T23:17:37.243Z,7.70
2022-10-05T23:20:35.961Z,7.70
2022-10-05T23:23:36.401Z,7.70
2022-10-05T23:26:35.928Z,7.80
2022-10-05T23:29:34.088Z,7.80
2022-10-05T23:32:33.091Z,7.80
2022-10-05T23:35:31.227Z,7.80
2022-10-05T23:38:31.317Z,7.80
2022-10-05T23:41:29.914Z,7.80
2022-10-05T23:44:28.639Z,7.80
2022-10-05T23:47:26.831Z,7.80
2022-10-05T23:50:25.657Z,7.80
2022-10-05T23:53:24.256Z,7.70
2022-10-05T23:56:23.003Z,7.70
2022-10-05T23:59:21.454Z,7.70
